createdAt,value
2019-03-13T00:01:34.309Z,1.50
2019-03-13T00:04:05.283Z,1.50
2019-03-13T00:06:35.760Z,1.50
2019-03-13T00:09:10.212Z,1.40
2019-03-13T00:11:40.788Z,1.40
2019-03-13T00:14:10.923Z,1.40
2019-03-13T00:16:41.120Z,1.40
2019-03-13T00:19:11.308Z,1.40
2019-03-13T00:21:41.459Z,1.40
2019-03-13T00:24:11.467Z,1.40
2019-03-13T00:26:41.514Z,1.40
2019-03-13T00:29:11.601Z,1.40
2019-03-13T00:31:41.708Z,1.40
2019-03-13T00:34:12.071Z,1.30
2019-03-13T00:36:42.994Z,1.30
2019-03-13T00:39:12.979Z,1.30
2019-03-13T00:41:43.043Z,1.30
2019-03-13T00:44:13.023Z,1.20
2019-03-13T00:46:43.234Z,1.20
2019-03-13T00:49:13.264Z,1.20
2019-03-13T00:51:43.186Z,1.20
2019-03-13T00:54:13.293Z,1.20
2019-03-13T00:56:44.398Z,1.20
2019-03-13T00:59:14.401Z,1.20
2019-03-13T01:01:58.344Z,1.20
2019-03-13T01:04:47.547Z,1.20
2019-03-13T01:07:17.574Z,1.10
2019-03-13T01:09:47.627Z,1.10
2019-03-13T01:12:17.660Z,1.10
2019-03-13T01:14:48.029Z,1.10
2019-03-13T01:17:18.149Z,1.10
2019-03-13T01:19:48.350Z,1.10
2019-03-13T01:22:18.600Z,1.10
2019-03-13T01:24:48.621Z,1.10
2019-03-13T01:27:18.561Z,1.10
2019-03-13T01:29:48.750Z,1.10
2019-03-13T01:32:37.794Z,1.10
2019-03-13T01:35:27.106Z,1.10
2019-03-13T01:37:57.094Z,1.00
2019-03-13T01:40:29.050Z,1.00
2019-03-13T01:42:59.071Z,1.00
2019-03-13T01:45:29.827Z,1.10
2019-03-13T01:47:59.811Z,1.10
2019-03-13T01:50:29.859Z,1.10
2019-03-13T01:52:59.970Z,1.10
2019-03-13T01:55:30.290Z,1.10
2019-03-13T01:58:00.209Z,1.00
2019-03-13T02:00:30.425Z,1.00
2019-03-13T02:03:00.391Z,1.00
2019-03-13T02:05:30.327Z,1.00
2019-03-13T02:08:00.262Z,1.00
2019-03-13T02:10:30.212Z,0.90
2019-03-13T02:13:00.305Z,0.90
2019-03-13T02:15:30.425Z,0.90
2019-03-13T02:18:00.394Z,0.90
2019-03-13T02:20:30.371Z,0.90
2019-03-13T02:23:00.620Z,0.90
2019-03-13T02:25:30.644Z,0.90
2019-03-13T02:28:00.818Z,0.90
2019-03-13T02:30:31.542Z,0.90
2019-03-13T02:33:02.430Z,1.00
2019-03-13T02:35:32.789Z,1.00
2019-03-13T02:38:05.686Z,1.10
2019-03-13T02:40:37.196Z,1.10
2019-03-13T02:43:07.247Z,1.10
2019-03-13T02:45:37.310Z,1.10
2019-03-13T02:48:07.291Z,1.20
2019-03-13T02:50:37.212Z,1.30
2019-03-13T02:53:07.364Z,1.30
2019-03-13T02:55:37.299Z,1.30
2019-03-13T02:58:07.356Z,1.30
2019-03-13T03:00:48.829Z,1.30
2019-03-13T03:06:21.554Z,1.30
2019-03-13T03:08:51.671Z,1.30
2019-03-13T03:11:21.701Z,1.30
2019-03-13T03:13:52.022Z,1.30
2019-03-13T03:16:22.165Z,1.30
2019-03-13T03:18:52.493Z,1.30
2019-03-13T03:21:22.597Z,1.30
2019-03-13T03:23:52.663Z,1.40
2019-03-13T03:26:22.680Z,1.40
2019-03-13T03:28:52.745Z,1.40
2019-03-13T03:31:22.852Z,1.40
2019-03-13T03:34:12.113Z,1.50
2019-03-13T03:36:42.145Z,1.50
2019-03-13T03:39:12.210Z,1.50
2019-03-13T03:41:42.618Z,1.50
2019-03-13T03:44:12.803Z,1.50
2019-03-13T03:46:42.797Z,1.50
2019-03-13T03:49:12.818Z,1.50
2019-03-13T03:51:42.973Z,1.50
2019-03-13T03:54:12.983Z,1.40
2019-03-13T03:56:43.108Z,1.40
2019-03-13T03:59:13.229Z,1.40
2019-03-13T04:01:43.551Z,1.50
2019-03-13T04:04:13.636Z,1.50
2019-03-13T04:06:43.638Z,1.50
2019-03-13T04:09:13.778Z,1.50
2019-03-13T04:11:44.009Z,1.60
2019-03-13T04:14:14.126Z,1.60
2019-03-13T04:16:46.174Z,1.60
2019-03-13T04:19:16.251Z,1.70
2019-03-13T04:21:46.617Z,1.70
2019-03-13T04:24:16.937Z,1.80
2019-03-13T04:26:46.986Z,1.80
2019-03-13T04:29:17.039Z,1.80
2019-03-13T04:31:47.213Z,1.80
2019-03-13T04:34:17.202Z,1.90
2019-03-13T04:36:47.908Z,2.00
2019-03-13T04:39:20.490Z,2.00
2019-03-13T04:41:50.665Z,2.10
2019-03-13T04:44:22.307Z,2.10
2019-03-13T04:46:52.319Z,2.10
2019-03-13T04:49:22.844Z,2.10
2019-03-13T04:51:53.058Z,2.20
2019-03-13T04:54:23.095Z,2.20
2019-03-13T04:56:53.077Z,2.20
2019-03-13T04:59:23.055Z,2.30
2019-03-13T05:01:53.071Z,2.30
2019-03-13T05:04:23.128Z,2.30
2019-03-13T05:06:53.190Z,2.40
2019-03-13T05:09:35.885Z,2.40
2019-03-13T05:12:06.144Z,2.40
2019-03-13T05:14:36.262Z,2.40
2019-03-13T05:17:06.250Z,2.50
2019-03-13T05:19:36.229Z,2.50
2019-03-13T05:22:06.331Z,2.50
2019-03-13T05:24:36.437Z,2.50
2019-03-13T05:27:06.636Z,2.60
2019-03-13T05:29:36.633Z,2.60
2019-03-13T05:32:08.117Z,2.70
2019-03-13T05:34:38.298Z,2.70
2019-03-13T05:37:08.417Z,2.70
2019-03-13T05:39:38.448Z,2.70
2019-03-13T05:42:08.436Z,2.80
2019-03-13T05:44:38.588Z,2.80
2019-03-13T05:47:08.801Z,2.90
2019-03-13T05:49:38.994Z,3.00
2019-03-13T05:52:09.150Z,3.00
2019-03-13T05:54:39.112Z,3.00
2019-03-13T05:57:10.330Z,3.10
2019-03-13T05:59:40.338Z,3.10
2019-03-13T06:02:10.445Z,3.10
2019-03-13T06:04:40.596Z,3.10
2019-03-13T06:07:10.879Z,3.10
2019-03-13T06:09:40.841Z,3.10
2019-03-13T06:12:11.374Z,3.10
2019-03-13T06:14:41.629Z,3.20
2019-03-13T06:17:11.597Z,3.20
2019-03-13T06:19:41.814Z,3.20
2019-03-13T06:22:11.814Z,3.30
2019-03-13T06:24:42.121Z,3.30
2019-03-13T06:27:12.231Z,3.30
2019-03-13T06:29:42.490Z,3.30
2019-03-13T06:32:12.503Z,3.40
2019-03-13T06:34:44.325Z,3.40
2019-03-13T06:37:14.384Z,3.40
2019-03-13T06:39:44.507Z,3.40
2019-03-13T06:42:16.475Z,3.40
2019-03-13T06:44:46.622Z,3.50
2019-03-13T06:47:16.686Z,3.60
2019-03-13T06:49:46.798Z,3.60
2019-03-13T06:52:16.855Z,3.70
2019-03-13T06:54:51.545Z,3.80
2019-03-13T06:57:21.919Z,3.90
2019-03-13T07:00:11.161Z,3.90
2019-03-13T07:02:50.267Z,4.00
2019-03-13T07:05:39.363Z,4.10
2019-03-13T07:08:17.379Z,4.20
2019-03-13T07:11:01.920Z,4.20
2019-03-13T07:13:46.245Z,4.20
2019-03-13T07:16:23.199Z,4.30
2019-03-13T07:19:13.583Z,4.30
2019-03-13T07:22:02.685Z,4.40
2019-03-13T07:24:42.780Z,4.40
2019-03-13T07:27:27.845Z,4.50
2019-03-13T07:30:04.789Z,4.50
2019-03-13T07:32:52.053Z,4.50
2019-03-13T07:35:41.775Z,4.50
2019-03-13T07:38:30.897Z,4.60
2019-03-13T07:41:20.019Z,4.60
2019-03-13T07:44:09.225Z,4.70
2019-03-13T07:46:58.820Z,4.70
2019-03-13T07:49:44.312Z,4.70
2019-03-13T07:52:33.601Z,4.70
2019-03-13T07:55:16.594Z,4.70
2019-03-13T07:58:03.539Z,4.80
2019-03-13T08:00:53.571Z,4.80
2019-03-13T08:03:43.007Z,4.80
2019-03-13T08:06:27.770Z,4.90
2019-03-13T08:09:16.904Z,4.90
2019-03-13T08:12:07.312Z,4.90
2019-03-13T08:14:55.359Z,5.00
2019-03-13T08:17:38.984Z,5.00
2019-03-13T08:20:28.844Z,5.10
2019-03-13T08:23:18.203Z,5.20
2019-03-13T08:26:07.354Z,5.30
2019-03-13T08:28:48.491Z,5.40
2019-03-13T08:31:38.377Z,5.50
2019-03-13T08:34:27.416Z,5.50
2019-03-13T08:37:17.132Z,5.60
2019-03-13T08:39:54.450Z,5.70
2019-03-13T08:42:44.612Z,5.70
2019-03-13T08:45:45.209Z,5.70
2019-03-13T08:48:23.113Z,5.70
2019-03-13T08:51:11.258Z,5.60
2019-03-13T08:53:56.051Z,5.60
2019-03-13T08:56:30.138Z,5.60
2019-03-13T08:59:13.596Z,5.60
2019-03-13T09:01:50.038Z,5.50
2019-03-13T09:04:42.104Z,5.50
2019-03-13T09:07:31.078Z,5.60
2019-03-13T09:10:08.934Z,5.60
2019-03-13T09:13:01.297Z,5.60
2019-03-13T09:15:48.786Z,5.60
2019-03-13T09:18:30.294Z,5.60
2019-03-13T09:21:19.342Z,5.60
2019-03-13T09:24:08.550Z,5.60
2019-03-13T09:26:50.837Z,5.60
2019-03-13T09:29:37.272Z,5.50
2019-03-13T09:32:28.172Z,5.50
2019-03-13T09:35:36.427Z,5.50
2019-03-13T09:38:14.783Z,5.50
2019-03-13T09:41:04.061Z,5.40
2019-03-13T09:43:53.461Z,5.50
2019-03-13T09:46:39.060Z,5.50
2019-03-13T09:49:28.172Z,5.60
2019-03-13T09:52:17.262Z,5.70
2019-03-13T09:55:06.283Z,5.80
2019-03-13T09:57:55.504Z,5.80
2019-03-13T10:00:45.096Z,5.80
2019-03-13T10:03:34.201Z,5.80
2019-03-13T10:06:15.960Z,5.70
2019-03-13T10:09:05.003Z,5.60
2019-03-13T10:11:55.949Z,5.50
2019-03-13T10:14:32.118Z,5.40
2019-03-13T10:17:11.422Z,5.40
2019-03-13T10:19:49.460Z,5.30
2019-03-13T10:22:38.595Z,5.20
2019-03-13T10:25:17.361Z,5.10
2019-03-13T10:27:56.640Z,5.00
2019-03-13T10:30:36.721Z,4.90
2019-03-13T10:33:16.469Z,4.80
2019-03-13T10:36:06.825Z,4.70
2019-03-13T10:38:55.917Z,4.60
2019-03-13T10:41:34.745Z,4.50
2019-03-13T10:44:13.848Z,4.50
2019-03-13T10:47:03.150Z,4.50
2019-03-13T10:49:42.276Z,4.50
2019-03-13T10:52:18.031Z,4.50
2019-03-13T10:55:02.792Z,4.60
2019-03-13T10:57:52.083Z,4.60
2019-03-13T11:00:32.231Z,4.60
2019-03-13T11:03:21.346Z,4.60
2019-03-13T11:06:06.950Z,4.60
2019-03-13T11:08:47.732Z,4.70
2019-03-13T11:11:35.286Z,4.80
2019-03-13T11:14:19.659Z,4.80
2019-03-13T11:17:08.768Z,4.80
2019-03-13T11:19:57.943Z,4.90
2019-03-13T11:22:47.267Z,4.90
2019-03-13T11:25:23.448Z,5.00
2019-03-13T11:28:02.863Z,5.00
2019-03-13T11:30:52.352Z,5.00
2019-03-13T11:34:14.075Z,5.10
2019-03-13T11:37:02.147Z,5.10
2019-03-13T11:39:51.670Z,5.10
2019-03-13T11:42:28.115Z,5.10
2019-03-13T11:45:18.311Z,5.10
2019-03-13T11:48:00.500Z,5.10
2019-03-13T11:50:43.579Z,5.20
2019-03-13T11:53:28.373Z,5.20
2019-03-13T11:56:16.667Z,5.20
2019-03-13T11:59:05.091Z,5.20
2019-03-13T12:01:49.836Z,5.20
2019-03-13T12:04:40.098Z,5.20
2019-03-13T12:07:29.450Z,5.20
2019-03-13T12:10:18.619Z,5.30
2019-03-13T12:13:26.794Z,5.30
2019-03-13T12:16:01.520Z,5.20
2019-03-13T12:18:44.196Z,5.20
2019-03-13T12:21:24.590Z,5.20
2019-03-13T12:24:14.723Z,5.20
2019-03-13T12:27:02.186Z,5.20
2019-03-13T12:29:51.490Z,5.20
2019-03-13T12:32:29.149Z,5.20
2019-03-13T12:35:18.366Z,5.20
2019-03-13T12:38:01.260Z,5.20
2019-03-13T12:40:44.529Z,5.20
2019-03-13T12:43:33.756Z,5.20
2019-03-13T12:46:23.113Z,5.30
2019-03-13T12:49:12.203Z,5.30
2019-03-13T12:52:01.405Z,5.30
2019-03-13T12:54:50.600Z,5.40
2019-03-13T12:57:35.153Z,5.40
2019-03-13T13:00:27.714Z,5.50
2019-03-13T13:03:12.433Z,5.60
2019-03-13T13:06:03.300Z,5.70
2019-03-13T13:08:52.331Z,5.90
2019-03-13T13:11:41.438Z,6.10
2019-03-13T13:14:28.553Z,6.40
2019-03-13T13:17:17.667Z,6.60
2019-03-13T13:19:47.803Z,6.80
2019-03-13T13:22:18.069Z,7.00
2019-03-13T13:24:48.453Z,7.10
2019-03-13T13:27:18.630Z,7.20
2019-03-13T13:29:48.764Z,7.10
2019-03-13T13:32:18.925Z,7.10
2019-03-13T13:34:51.515Z,7.00
2019-03-13T13:37:21.679Z,7.10
2019-03-13T13:39:51.907Z,7.10
2019-03-13T13:42:22.097Z,7.10
2019-03-13T13:44:52.271Z,8.30
2019-03-13T13:47:22.552Z,10.20
2019-03-13T13:49:59.696Z,11.60
2019-03-13T13:52:25.553Z,12.90
2019-03-13T13:54:55.680Z,12.30
2019-03-13T13:57:37.610Z,11.20
2019-03-13T14:00:08.172Z,10.40
2019-03-13T14:02:38.351Z,9.80
2019-03-13T14:05:08.616Z,9.30
2019-03-13T14:07:38.662Z,9.10
2019-03-13T14:10:09.241Z,8.90
2019-03-13T14:12:39.382Z,8.80
2019-03-13T14:15:09.724Z,8.70
2019-03-13T14:17:40.078Z,8.80
2019-03-13T14:20:10.482Z,9.10
2019-03-13T14:22:40.833Z,9.50
2019-03-13T14:25:11.069Z,9.70
2019-03-13T14:27:41.194Z,9.60
2019-03-13T14:30:12.762Z,9.50
2019-03-13T14:32:43.059Z,9.40
2019-03-13T14:35:13.242Z,9.20
2019-03-13T14:37:43.807Z,9.00
2019-03-13T14:40:14.530Z,8.90
2019-03-13T14:42:44.796Z,8.90
2019-03-13T14:45:15.328Z,8.90
2019-03-13T14:47:48.691Z,8.80
2019-03-13T14:50:18.971Z,8.70
2019-03-13T14:52:49.228Z,8.60
2019-03-13T14:55:19.759Z,8.60
2019-03-13T14:57:49.928Z,8.50
2019-03-13T15:00:20.324Z,8.50
2019-03-13T15:02:52.283Z,8.50
2019-03-13T15:05:22.423Z,8.50
2019-03-13T15:07:52.717Z,8.60
2019-03-13T15:10:23.554Z,8.60
2019-03-13T15:12:54.358Z,8.60
2019-03-13T15:15:25.644Z,8.50
2019-03-13T15:17:55.879Z,8.50
2019-03-13T15:20:26.142Z,8.40
2019-03-13T15:22:56.423Z,8.40
2019-03-13T15:25:26.612Z,8.40
2019-03-13T15:27:57.051Z,8.30
2019-03-13T15:30:27.344Z,8.30
2019-03-13T15:32:57.578Z,8.30
2019-03-13T15:35:30.421Z,8.30
2019-03-13T15:38:00.592Z,8.30
2019-03-13T15:40:31.456Z,8.30
2019-03-13T15:43:01.800Z,8.40
2019-03-13T15:45:32.055Z,8.40
2019-03-13T15:48:02.355Z,8.40
2019-03-13T15:50:32.760Z,8.40
2019-03-13T15:53:02.848Z,8.30
2019-03-13T15:55:33.264Z,8.30
2019-03-13T15:58:03.439Z,8.20
2019-03-13T16:00:33.596Z,8.20
2019-03-13T16:03:03.830Z,8.20
2019-03-13T16:05:34.062Z,8.20
2019-03-13T16:08:04.200Z,8.20
2019-03-13T16:10:35.412Z,8.10
2019-03-13T16:13:06.132Z,8.10
2019-03-13T16:15:38.302Z,8.10
2019-03-13T16:18:11.389Z,8.00
2019-03-13T16:20:42.627Z,8.00
2019-03-13T16:23:17.299Z,7.90
2019-03-13T16:25:47.769Z,7.90
2019-03-13T16:28:18.114Z,7.90
2019-03-13T16:31:11.475Z,7.80
2019-03-13T16:33:53.605Z,7.70
2019-03-13T16:36:27.358Z,7.60
2019-03-13T16:39:06.559Z,7.60
2019-03-13T16:41:46.798Z,7.50
2019-03-13T16:44:24.622Z,7.50
2019-03-13T16:46:59.583Z,7.40
2019-03-13T16:49:30.834Z,7.30
2019-03-13T16:52:04.568Z,7.20
2019-03-13T16:54:38.630Z,7.20
2019-03-13T16:57:09.964Z,7.10
2019-03-13T16:59:42.028Z,7.00
2019-03-13T17:02:21.265Z,7.00
2019-03-13T17:04:58.517Z,6.90
2019-03-13T17:07:42.361Z,6.70
2019-03-13T17:10:25.875Z,6.60
2019-03-13T17:13:17.594Z,6.30
2019-03-13T17:15:57.528Z,6.10
2019-03-13T17:18:31.472Z,6.00
2019-03-13T17:21:11.358Z,5.90
2019-03-13T17:23:43.677Z,5.80
2019-03-13T17:26:15.837Z,5.80
2019-03-13T17:28:50.497Z,5.80
2019-03-13T17:31:22.567Z,5.60
2019-03-13T17:33:55.126Z,5.50
2019-03-13T17:36:26.389Z,5.40
2019-03-13T17:39:01.952Z,5.30
2019-03-13T17:41:43.677Z,5.20
2019-03-13T17:44:22.516Z,5.20
2019-03-13T17:46:56.060Z,5.10
2019-03-13T17:49:32.054Z,5.00
2019-03-13T17:52:05.617Z,5.00
2019-03-13T17:54:37.556Z,4.90
2019-03-13T17:57:09.614Z,4.80
2019-03-13T17:59:40.543Z,4.70
2019-03-13T18:02:12.851Z,4.50
2019-03-13T18:04:47.632Z,4.50
2019-03-13T18:07:19.765Z,4.40
2019-03-13T18:09:51.387Z,4.30
2019-03-13T18:12:23.506Z,4.10
2019-03-13T18:14:54.461Z,4.00
2019-03-13T18:17:26.443Z,3.90
2019-03-13T18:19:56.776Z,3.80
2019-03-13T18:22:31.507Z,3.80
2019-03-13T18:25:02.959Z,3.70
2019-03-13T18:27:33.304Z,3.60
2019-03-13T18:30:03.665Z,3.50
2019-03-13T18:32:41.746Z,3.50
2019-03-13T18:35:07.548Z,3.50
2019-03-13T18:37:37.969Z,3.50
2019-03-13T18:40:15.657Z,3.50
2019-03-13T18:42:49.342Z,3.50
2019-03-13T18:45:22.837Z,3.60
2019-03-13T18:47:54.912Z,3.60
2019-03-13T18:50:25.478Z,3.70
2019-03-13T18:52:55.756Z,3.70
2019-03-13T18:55:29.182Z,3.70
2019-03-13T18:57:59.887Z,3.80
2019-03-13T19:00:30.720Z,3.90
2019-03-13T19:03:02.200Z,3.90
2019-03-13T19:05:33.560Z,4.00
2019-03-13T19:08:13.792Z,4.10
2019-03-13T19:10:44.504Z,4.10
2019-03-13T19:13:14.830Z,4.20
2019-03-13T19:15:48.048Z,4.30
2019-03-13T19:18:18.462Z,4.30
2019-03-13T19:20:48.768Z,4.40
2019-03-13T19:23:22.234Z,4.40
2019-03-13T19:25:52.410Z,4.40
2019-03-13T19:28:22.848Z,4.50
2019-03-13T19:30:54.538Z,4.50
2019-03-13T19:33:24.961Z,4.50
2019-03-13T19:35:56.539Z,4.50
2019-03-13T19:38:26.848Z,4.50
2019-03-13T19:40:58.291Z,4.50
2019-03-13T19:43:29.020Z,4.50
2019-03-13T19:46:01.892Z,4.50
2019-03-13T19:48:34.873Z,4.50
2019-03-13T19:51:10.947Z,4.60
2019-03-13T19:53:42.249Z,4.60
2019-03-13T19:56:17.899Z,4.60
2019-03-13T19:58:49.243Z,4.60
2019-03-13T20:01:19.641Z,4.60
2019-03-13T20:03:55.125Z,4.60
2019-03-13T20:06:21.783Z,4.60
2019-03-13T20:08:53.798Z,4.60
2019-03-13T20:11:25.119Z,4.60
2019-03-13T20:13:56.670Z,4.70
2019-03-13T20:16:26.768Z,4.70
2019-03-13T20:18:58.025Z,4.70
2019-03-13T20:21:31.019Z,4.70
2019-03-13T20:24:03.376Z,4.70
2019-03-13T20:26:33.479Z,4.70
2019-03-13T20:29:04.289Z,4.70
2019-03-13T20:31:53.668Z,4.70
2019-03-13T20:34:24.186Z,4.70
2019-03-13T20:36:54.747Z,4.70
2019-03-13T20:39:25.177Z,4.70
2019-03-13T20:41:55.500Z,4.70
2019-03-13T20:44:29.236Z,4.70
2019-03-13T20:47:02.642Z,4.70
2019-03-13T20:49:35.281Z,4.70
2019-03-13T20:52:05.627Z,4.70
2019-03-13T20:54:38.246Z,4.70
2019-03-13T20:57:08.442Z,4.70
2019-03-13T20:59:38.900Z,4.70
2019-03-13T21:02:12.029Z,4.70
2019-03-13T21:04:43.373Z,4.70
2019-03-13T21:07:13.899Z,4.70
2019-03-13T21:09:44.302Z,4.70
2019-03-13T21:12:14.718Z,4.80
2019-03-13T21:14:47.334Z,4.80
2019-03-13T21:17:20.794Z,4.80
2019-03-13T21:19:52.097Z,4.80
2019-03-13T21:22:22.371Z,4.80
2019-03-13T21:24:52.748Z,4.70
2019-03-13T21:27:22.800Z,4.70
2019-03-13T21:29:53.077Z,4.70
2019-03-13T21:32:23.294Z,4.70
2019-03-13T21:34:53.497Z,4.60
2019-03-13T21:37:23.647Z,4.60
2019-03-13T21:39:53.890Z,4.60
2019-03-13T21:42:25.033Z,4.60
2019-03-13T21:44:56.224Z,4.60
2019-03-13T21:47:26.433Z,4.60
2019-03-13T21:49:56.639Z,4.60
2019-03-13T21:52:26.756Z,4.60
2019-03-13T21:54:57.950Z,4.50
2019-03-13T21:57:29.297Z,4.50
2019-03-13T21:59:59.790Z,4.50
2019-03-13T22:02:33.920Z,4.40
2019-03-13T22:05:03.398Z,4.40
2019-03-13T22:07:33.488Z,4.40
2019-03-13T22:10:03.896Z,4.40
2019-03-13T22:12:33.917Z,4.30
2019-03-13T22:15:04.137Z,4.30
2019-03-13T22:17:35.397Z,4.30
2019-03-13T22:20:06.158Z,4.20
2019-03-13T22:22:36.338Z,4.20
2019-03-13T22:25:06.814Z,4.10
2019-03-13T22:27:36.878Z,4.10
2019-03-13T22:30:09.269Z,4.10
2019-03-13T22:32:39.350Z,4.10
2019-03-13T22:35:10.418Z,4.00
2019-03-13T22:37:40.690Z,4.00
2019-03-13T22:40:13.390Z,4.00
2019-03-13T22:42:43.518Z,4.00
2019-03-13T22:45:14.940Z,4.00
2019-03-13T22:47:45.044Z,4.00
2019-03-13T22:50:17.842Z,4.00
2019-03-13T22:52:48.076Z,4.00
2019-03-13T22:55:18.435Z,3.90
2019-03-13T22:57:48.753Z,3.90
2019-03-13T23:00:51.256Z,4.00
2019-03-13T23:03:23.446Z,3.90
2019-03-13T23:05:54.122Z,3.90
2019-03-13T23:08:25.972Z,3.80
2019-03-13T23:10:59.693Z,3.80
2019-03-13T23:13:29.774Z,3.80
2019-03-13T23:15:59.986Z,3.80
2019-03-13T23:18:29.974Z,3.80
2019-03-13T23:21:00.113Z,3.70
2019-03-13T23:23:30.396Z,3.70
2019-03-13T23:26:00.474Z,3.70
2019-03-13T23:28:30.543Z,3.70
2019-03-13T23:31:00.653Z,3.70
2019-03-13T23:33:30.960Z,3.70
2019-03-13T23:36:01.153Z,3.60
2019-03-13T23:38:31.455Z,3.70
2019-03-13T23:41:02.931Z,3.70
2019-03-13T23:43:33.035Z,3.70
2019-03-13T23:46:03.215Z,3.60
2019-03-13T23:48:33.254Z,3.60
2019-03-13T23:51:03.361Z,3.60
2019-03-13T23:53:33.516Z,3.60
2019-03-13T23:56:03.678Z,3.60
2019-03-13T23:58:33.730Z,3.60
